Suzano, Brazil
Current Conditions -  °F | °C
As of 3:00 PM on Sunday 21 Dec 2014 (Local Time) from SBGR Reporting Station
Broken Clouds Broken Clouds  
Wind Chill: 86°   Ceiling: 4500
Heat Index: 89°   Visibility: 6mi
Dew Point: 68°   Wind: 14mph
Humidity: 55%   Direction: 360°N
Pressure: 29.88"   Gusts: NA
Location:  23.55°S, 46.31°W
Report Text: SBGR 211700Z 36012KT 9999 BKN045 30/20 Q1012
Loading
Personal Weather Stations






























Interactive Weather Map New forecast layout! Learn more

10-Day Weather Forecast

Advertisements
Track Severe Weather on mobile